Time;durP1;ratioP1;P1;durP2;ratioP2;P2;SDS_P1;SDS_P2;PMS_P1;PMS_P2;Temp;Humidity;BMP_temperature;BMP_pressure;BME280_temperature;BME280_humidity;BME280_pressure;Samples;Min_cycle;Max_cycle;Signal;HPM_P1;HPM_P2
2023/06/08 10:29:32;;;;;;;0.40;0.40;;;18.00;83.20;;;21.39;65.49;94871.59;5069016;28;20541;-37
2023/06/08 10:31:59;;;;;;;0.50;0.50;;;20.70;82.20;;;21.72;64.66;94866.94;5049919;28;20194;-38
2023/06/08 10:34:29;;;;;;;0.40;0.40;;;21.10;81.80;;;22.02;64.02;94870.72;5049066;28;20210;-36
2023/06/08 10:36:56;;;;;;;0.30;0.30;;;21.50;81.00;;;22.24;63.42;94864.34;5048554;28;20280;-36
2023/06/08 10:39:23;;;;;;;0.40;0.40;;;21.70;80.10;;;22.43;62.90;94866.50;5047706;28;20202;-36
2023/06/08 10:41:54;;;;;;;0.30;0.30;;;22.00;79.50;;;22.57;62.12;94859.56;5048350;28;20193;-36
2023/06/08 10:44:40;;;;;;;0.35;0.35;;;22.20;78.70;;;22.68;61.80;94849.66;5047523;28;20284;-36
2023/06/08 10:47:11;;;;;;;0.30;0.30;;;22.30;78.20;;;22.77;61.57;94850.69;5047152;28;20237;-36
2023/06/08 10:49:40;;;;;;;0.30;0.30;;;22.40;78.00;;;22.86;61.33;94848.25;5048282;28;20237;-36
2023/06/08 10:52:10;;;;;;;0.35;0.35;;;22.50;77.80;;;22.93;60.92;94839.97;5064108;28;20288;-36
2023/06/08 10:54:58;;;;;;;0.40;0.40;;;22.60;77.50;;;22.98;60.92;94842.63;5048306;28;20193;-36
2023/06/08 10:57:44;;;;;;;0.30;0.30;;;22.70;77.00;;;23.03;60.50;94835.41;5048478;28;20240;-36
2023/06/08 11:00:28;;;;;;;0.32;0.32;;;22.80;76.80;;;23.07;60.18;94827.63;5048804;28;20194;-36
2023/06/08 11:03:00;;;;;;;0.60;0.60;;;22.80;76.60;;;23.12;60.18;94822.25;5048041;28;20189;-36
2023/06/08 11:05:35;;;;;;;0.32;0.32;;;22.90;76.80;;;23.16;60.05;94823.31;5048083;28;20182;-36
2023/06/08 11:08:04;;;;;;;0.30;0.30;;;22.90;76.40;;;23.21;60.03;94825.19;5064585;28;20243;-36
2023/06/08 11:10:32;;;;;;;0.30;0.30;;;23.00;76.60;;;23.25;60.00;94822.75;5047933;28;20240;-36
2023/06/08 11:13:08;;;;;;;0.43;0.43;;;23.00;77.30;;;23.27;59.62;94824.09;5047960;28;20198;-36
2023/06/08 11:15:43;;;;;;;0.40;0.40;;;23.00;75.90;;;23.32;59.38;94823.28;5048098;28;20288;-36
2023/06/08 11:18:11;;;;;;;0.50;0.50;;;23.10;75.90;;;23.34;59.60;94821.91;5048178;28;20629;-36
2023/06/08 11:20:41;;;;;;;0.38;0.38;;;23.10;76.00;;;23.38;59.12;94830.19;5047805;28;20196;-36
2023/06/08 11:23:13;;;;;;;0.40;0.40;;;23.10;76.70;;;23.39;59.20;94820.28;5047934;28;20600;-39
2023/06/08 11:25:41;;;;;;;0.40;0.40;;;23.20;75.50;;;23.42;59.13;94831.25;5047875;28;20214;-36
2023/06/08 11:28:11;;;;;;;0.30;0.30;;;23.20;75.60;;;23.44;59.02;94825.63;5047049;28;20240;-36
2023/06/08 11:30:38;;;;;;;0.30;0.30;;;23.20;76.20;;;23.44;58.81;94821.06;5034172;28;20215;-36
2023/06/08 11:33:08;;;;;;;0.40;0.40;;;23.20;75.30;;;23.45;58.61;94821.88;5034748;28;20251;-36
2023/06/08 11:35:36;;;;;;;0.30;0.30;;;23.20;75.20;;;23.45;58.83;94817.31;5034299;28;20632;-36
2023/06/08 11:38:03;;;;;;;0.40;0.40;;;23.20;75.10;;;23.46;58.50;94821.59;5034457;28;20306;-36
2023/06/08 11:40:32;;;;;;;0.30;0.30;;;23.20;75.00;;;23.47;58.34;94822.38;5034179;28;20633;-36
2023/06/08 11:43:00;;;;;;;0.40;0.40;;;23.20;74.90;;;23.47;58.23;94823.22;5034560;28;20191;-37
2023/06/08 11:45:28;;;;;;;0.30;0.30;;;23.20;74.80;;;23.47;58.20;94823.22;5034370;28;20283;-37
2023/06/08 11:47:57;;;;;;;0.30;0.30;;;23.20;74.80;;;23.47;57.94;94817.84;5034313;28;20197;-36
2023/06/08 11:50:47;;;;;;;0.40;0.40;;;23.20;74.70;;;23.47;57.83;94825.06;5034131;28;20194;-38
2023/06/08 11:53:22;;;;;;;0.30;0.30;;;23.20;74.40;;;23.48;57.96;94821.31;5034542;28;20228;-37
2023/06/08 11:55:52;;;;;;;0.35;0.35;;;23.20;74.60;;;23.49;57.79;94818.34;5049387;28;20290;-38
2023/06/08 11:58:27;;;;;;;0.30;0.30;;;23.20;74.40;;;23.50;57.79;94816.50;5034468;28;20598;-36
2023/06/08 12:01:07;;;;;;;0.40;0.40;;;23.20;74.20;;;23.48;57.71;94821.31;5049463;28;20174;-36
2023/06/08 12:03:46;;;;;;;0.38;0.38;;;23.20;74.00;;;23.48;57.62;94819.44;5034219;28;20192;-37
2023/06/08 12:06:27;;;;;;;0.30;0.30;;;23.20;73.90;;;23.48;57.60;94816.75;5034411;28;20522;-37
2023/06/08 12:08:55;;;;;;;0.40;0.40;;;23.20;74.00;;;23.48;57.59;94816.75;5034674;28;20193;-37
2023/06/08 12:11:23;;;;;;;0.30;0.30;;;23.20;74.20;;;23.49;57.35;94823.72;5034084;28;20298;-38
2023/06/08 12:13:54;;;;;;;0.30;0.30;;;23.20;74.10;;;23.49;57.57;94818.34;5035844;28;20189;-38
2023/06/08 12:16:21;;;;;;;0.38;0.38;;;23.20;74.00;;;23.49;57.46;94818.34;5033386;28;20627;-37
2023/06/08 12:18:48;;;;;;;0.38;0.38;;;23.20;74.00;;;23.49;57.35;94817.56;5032916;28;20220;-36
2023/06/08 12:21:16;;;;;;;0.30;0.30;;;23.20;73.90;;;23.50;57.12;94813.81;5034482;28;20684;-36
2023/06/08 12:23:44;;;;;;;0.30;0.30;;;23.20;73.90;;;23.50;57.24;94811.16;5034038;28;20666;-37
2023/06/08 12:26:14;;;;;;;0.38;0.38;;;23.20;73.80;;;23.50;56.95;94805.78;5033951;28;20192;-36
2023/06/08 12:28:42;;;;;;;0.30;0.30;;;23.20;73.70;;;23.51;56.97;94812.75;5032869;28;20701;-37
2023/06/08 12:31:10;;;;;;;0.30;0.30;;;23.20;73.60;;;23.50;57.12;94813.81;5033715;28;20724;-36
2023/06/08 12:33:37;;;;;;;0.30;0.30;;;23.20;73.60;;;23.50;57.00;94819.97;5033749;28;20205;-36
2023/06/08 12:36:05;;;;;;;0.40;0.40;;;23.20;73.60;;;23.50;56.94;94824.53;5033517;28;20213;-36
2023/06/08 12:38:33;;;;;;;0.30;0.30;;;23.20;73.50;;;23.51;56.69;94820.78;5033625;28;20309;-38
2023/06/08 12:41:00;;;;;;;0.30;0.30;;;23.20;73.50;;;23.52;56.76;94816.22;5032415;28;20644;-37
2023/06/08 12:43:27;;;;;;;0.30;0.30;;;23.20;73.40;;;23.51;56.67;94815.44;5033749;28;20197;-36
2023/06/08 12:45:54;;;;;;;0.40;0.40;;;23.20;73.40;;;23.51;56.79;94823.47;5033303;28;20213;-37
2023/06/08 12:48:22;;;;;;;0.40;0.40;;;23.20;73.30;;;23.53;56.57;94820.50;5033383;28;20229;-36
2023/06/08 12:50:49;;;;;;;0.40;0.40;;;23.20;73.20;;;23.52;56.79;94822.34;5032500;28;20635;-36
2023/06/08 12:53:16;;;;;;;0.30;0.30;;;23.20;73.20;;;23.52;56.47;94830.38;5033298;28;20215;-36
2023/06/08 12:55:43;;;;;;;0.40;0.40;;;23.20;73.10;;;23.51;56.42;94834.16;5033257;28;20288;-36
2023/06/08 12:58:11;;;;;;;0.40;0.40;;;23.20;73.10;;;23.52;56.30;94832.28;5033925;28;20212;-36
2023/06/08 13:00:38;;;;;;;0.40;0.40;;;23.20;73.10;;;23.53;56.18;94831.19;5033580;28;20556;-36
2023/06/08 13:03:09;;;;;;;0.40;0.40;;;23.20;73.00;;;23.52;56.22;94830.38;5033431;28;20620;-37
2023/06/08 13:05:36;;;;;;;0.38;0.38;;;23.20;72.60;;;23.52;56.03;94826.91;5048850;28;20200;-36
2023/06/08 13:08:06;;;;;;;0.40;0.40;;;23.20;72.80;;;23.52;55.95;94826.91;5033407;28;20214;-36
2023/06/08 13:10:38;;;;;;;0.40;0.40;;;23.20;72.60;;;23.49;55.90;94823.72;5033023;28;20635;-37
2023/06/08 13:13:06;;;;;;;0.32;0.32;;;23.20;72.30;;;23.50;55.88;94821.84;5015990;28;20523;-37
2023/06/08 13:15:35;;;;;;;0.30;0.30;;;23.20;72.50;;;23.49;55.63;94818.34;5033119;28;20650;-36
2023/06/08 13:18:06;;;;;;;0.30;0.30;;;23.20;72.40;;;23.50;55.68;94816.50;5032997;28;20205;-37
2023/06/08 13:20:35;;;;;;;0.50;0.50;;;23.20;72.40;;;23.49;55.51;94818.34;5033239;28;20214;-37
2023/06/08 13:23:02;;;;;;;0.40;0.40;;;23.20;72.30;;;23.48;55.83;94824.78;5032011;28;20247;-37
2023/06/08 13:25:30;;;;;;;0.40;0.40;;;23.20;72.30;;;23.49;55.45;94818.34;5032686;28;20198;-37
2023/06/08 13:27:57;;;;;;;0.50;0.50;;;23.20;72.20;;;23.48;55.46;94811.41;5031841;28;20242;-36
2023/06/08 13:30:24;;;;;;;0.32;0.32;;;23.20;72.20;;;23.49;55.52;94814.88;5033053;28;20635;-36
2023/06/08 13:32:59;;;;;;;0.35;0.35;;;23.20;72.20;;;23.49;55.34;94812.22;5031736;28;20231;-37
2023/06/08 13:35:28;;;;;;;0.30;0.30;;;23.20;72.10;;;23.49;55.30;94809.53;5032941;28;20202;-37
2023/06/08 13:37:56;;;;;;;0.40;0.40;;;23.20;73.00;;;23.49;55.27;94813.00;5031886;28;20229;-37
2023/06/08 13:40:24;;;;;;;0.30;0.30;;;23.20;72.10;;;23.49;55.41;94813.00;5032981;28;20626;-37
2023/06/08 13:42:51;;;;;;;0.40;0.40;;;23.20;72.10;;;23.49;55.37;94815.69;5033963;28;20225;-36
2023/06/08 13:45:20;;;;;;;0.40;0.40;;;23.20;72.90;;;23.50;55.38;94811.16;5032784;28;20231;-36
2023/06/08 13:47:48;;;;;;;0.40;0.40;;;23.20;72.00;;;23.50;55.41;94808.47;5032383;28;20190;-36
2023/06/08 13:50:16;;;;;;;0.40;0.40;;;23.20;71.90;;;23.49;55.06;94802.28;5032214;28;20273;-37
2023/06/08 13:52:43;;;;;;;0.30;0.30;;;23.20;71.80;;;23.49;55.23;94807.66;5032314;28;20221;-36
2023/06/08 13:55:11;;;;;;;0.30;0.30;;;23.20;71.80;;;23.49;55.14;94796.16;5032925;28;20275;-36
2023/06/08 13:57:38;;;;;;;0.43;0.43;;;23.20;71.80;;;23.48;55.11;94803.38;5032326;28;20202;-36
2023/06/08 14:00:06;;;;;;;0.40;0.40;;;23.20;71.70;;;23.49;55.08;94799.63;5032288;28;20191;-37
2023/06/08 14:02:41;;;;;;;0.30;0.30;;;23.20;71.70;;;23.49;54.95;94794.25;5032291;28;20632;-36
2023/06/08 14:05:08;;;;;;;0.40;0.40;;;23.20;71.70;;;23.49;54.91;94798.84;5031652;28;20186;-36
2023/06/08 14:07:36;;;;;;;0.30;0.30;;;23.20;71.60;;;23.47;54.99;94788.41;5032148;28;20198;-36
2023/06/08 14:10:05;;;;;;;0.50;0.50;;;23.20;71.70;;;23.47;54.96;94784.91;5032042;28;20200;-37
2023/06/08 14:12:33;;;;;;;0.30;0.30;;;23.20;71.60;;;23.46;54.78;94784.13;5032817;28;20196;-36
2023/06/08 14:15:01;;;;;;;0.40;0.40;;;23.10;71.50;;;23.47;54.84;94782.22;5032380;28;20645;-36
2023/06/08 14:17:28;;;;;;;0.40;0.40;;;23.20;71.60;;;23.46;54.97;94786.81;5032154;28;20493;-36
2023/06/08 14:19:55;;;;;;;0.38;0.38;;;23.20;71.60;;;23.45;55.08;94776.38;5032014;28;20271;-36
2023/06/08 14:22:23;;;;;;;0.38;0.38;;;23.20;71.60;;;23.45;54.94;94784.41;5032015;28;20219;-36
2023/06/08 14:24:50;;;;;;;0.40;0.40;;;23.10;71.40;;;23.46;54.89;94785.97;5031987;28;20276;-36
2023/06/08 14:27:17;;;;;;;0.40;0.40;;;23.10;71.50;;;23.44;54.80;94786.25;5031830;28;20631;-38
2023/06/08 14:29:44;;;;;;;0.30;0.30;;;23.10;71.40;;;23.43;54.93;94781.19;5031778;28;20643;-36
2023/06/08 14:32:12;;;;;;;0.32;0.32;;;23.10;71.50;;;23.42;54.82;94782.28;5032129;28;20214;-36
2023/06/08 14:34:39;;;;;;;0.40;0.40;;;23.10;71.50;;;23.42;54.69;94785.72;5032203;28;20205;-36
2023/06/08 14:37:06;;;;;;;0.32;0.32;;;23.10;71.50;;;23.41;54.79;94784.16;5032147;28;20199;-36
2023/06/08 14:39:36;;;;;;;0.40;0.40;;;23.10;71.40;;;23.42;54.72;94788.41;5031871;28;20675;-37
2023/06/08 14:42:06;;;;;;;0.30;0.30;;;23.10;71.40;;;23.40;54.68;94787.91;5031837;28;20218;-37
2023/06/08 14:44:34;;;;;;;0.32;0.32;;;23.10;71.40;;;23.38;54.78;94787.38;5031781;28;20283;-36
2023/06/08 14:47:01;;;;;;;0.30;0.30;;;23.10;71.40;;;23.40;54.77;94784.41;5030900;28;20638;-38
2023/06/08 14:49:36;;;;;;;0.40;0.40;;;23.10;71.40;;;23.39;54.53;94788.16;5031467;28;20217;-36
2023/06/08 14:52:04;;;;;;;0.40;0.40;;;23.10;71.30;;;23.38;54.87;94792.72;5031953;28;20189;-36
2023/06/08 14:54:31;;;;;;;0.30;0.30;;;23.00;71.10;;;23.36;54.42;94792.19;5031636;28;20703;-36
2023/06/08 14:56:58;;;;;;;0.30;0.30;;;23.00;71.20;;;23.34;54.39;94789.81;5031845;28;20202;-37
2023/06/08 14:59:25;;;;;;;0.50;0.50;;;23.00;71.20;;;23.33;54.53;94796.22;5031568;28;20206;-36
2023/06/08 15:01:54;;;;;;;0.30;0.30;;;23.00;71.10;;;23.31;54.22;94794.91;5031422;28;20274;-37
2023/06/08 15:04:24;;;;;;;0.40;0.40;;;23.00;71.20;;;23.29;54.44;94795.19;5032864;28;20219;-44
2023/06/08 15:06:51;;;;;;;0.40;0.40;;;22.90;71.10;;;23.27;54.44;94793.88;5035513;28;20658;-39
2023/06/08 15:09:18;;;;;;;0.38;0.38;;;22.90;71.10;;;23.25;54.44;94791.44;5034796;28;20241;-37
2023/06/08 15:11:45;;;;;;;0.43;0.43;;;22.90;71.10;;;23.23;54.30;94793.59;5034029;28;20229;-54
2023/06/08 15:14:12;;;;;;;0.40;0.40;;;22.90;71.10;;;23.22;54.58;94804.56;5034938;28;20207;-37
2023/06/08 15:16:39;;;;;;;0.40;0.40;;;22.90;71.00;;;23.20;54.43;94804.06;5035173;28;20204;-39
2023/06/08 15:19:07;;;;;;;0.40;0.40;;;22.90;71.00;;;23.18;54.47;94802.44;5035943;28;20543;-38
2023/06/08 15:21:34;;;;;;;0.40;0.40;;;22.90;71.00;;;23.16;54.28;94801.09;5034587;28;20666;-36
2023/06/08 15:24:01;;;;;;;0.40;0.40;;;22.90;71.00;;;23.15;54.50;94796.81;5051137;28;20205;-36
2023/06/08 15:26:28;;;;;;;0.40;0.40;;;22.90;71.00;;;23.14;54.38;94795.22;5034610;28;20625;-36
2023/06/08 15:28:56;;;;;;;0.40;0.40;;;22.90;70.90;;;23.12;54.38;94798.16;5034454;28;20324;-36
2023/06/08 15:31:23;;;;;;;0.40;0.40;;;22.80;70.80;;;23.09;54.46;94793.34;5034383;28;20229;-36
2023/06/08 15:33:50;;;;;;;0.40;0.40;;;22.80;70.80;;;23.08;54.39;94802.44;5034521;28;20188;-36
2023/06/08 15:36:17;;;;;;;0.40;0.40;;;22.80;70.80;;;23.08;54.37;94799.00;5033933;28;20201;-36
2023/06/08 15:38:44;;;;;;;0.40;0.40;;;22.80;70.80;;;23.06;54.44;94791.25;5034434;28;20639;-36
2023/06/08 15:41:11;;;;;;;0.40;0.40;;;22.80;70.80;;;23.06;54.45;94793.91;5034322;28;20282;-36
2023/06/08 15:43:40;;;;;;;0.40;0.40;;;22.80;70.90;;;23.06;54.28;94798.44;5034351;28;20541;-36
2023/06/08 15:46:07;;;;;;;0.30;0.30;;;22.80;70.90;;;23.05;54.31;94802.22;5034298;28;20213;-36
2023/06/08 15:48:34;;;;;;;0.32;0.32;;;22.80;70.90;;;23.04;54.44;94801.41;5033255;28;20232;-36
2023/06/08 15:51:01;;;;;;;0.30;0.30;;;22.80;70.80;;;23.05;54.36;94799.56;5034354;28;20195;-36
2023/06/08 15:53:29;;;;;;;0.40;0.40;;;22.70;70.70;;;23.03;54.34;94800.63;5034447;28;20190;-36
2023/06/08 15:55:56;;;;;;;0.40;0.40;;;22.70;70.80;;;23.04;54.27;94798.72;5034693;28;20232;-36
2023/06/08 15:58:27;;;;;;;0.35;0.35;;;22.70;70.70;;;23.05;54.34;94794.19;5034120;28;20211;-36
2023/06/08 16:00:56;;;;;;;0.40;0.40;;;22.70;70.70;;;23.02;54.33;94782.16;5034397;28;20195;-36
2023/06/08 16:03:23;;;;;;;0.40;0.40;;;22.70;70.70;;;23.02;54.22;94785.63;5033897;28;20645;-37
2023/06/08 16:05:52;;;;;;;0.40;0.40;;;22.70;70.70;;;23.00;54.08;94787.78;5034012;28;20542;-36
2023/06/08 16:08:19;;;;;;;0.40;0.40;;;22.70;70.80;;;22.99;54.15;94778.16;5033873;28;20721;-37
2023/06/08 16:10:48;;;;;;;0.40;0.40;;;22.70;70.70;;;22.98;54.42;94776.53;5033953;28;20226;-36
2023/06/08 16:13:16;;;;;;;0.30;0.30;;;22.70;70.70;;;22.97;54.19;94760.78;5049287;28;20199;-36
2023/06/08 16:15:44;;;;;;;0.40;0.40;;;22.70;70.70;;;22.97;54.23;94769.63;5033447;28;20184;-36
2023/06/08 16:18:11;;;;;;;0.40;0.40;;;22.70;70.70;;;22.96;54.27;94762.66;5033876;28;20239;-37
2023/06/08 16:20:38;;;;;;;0.40;0.40;;;22.70;70.70;;;22.96;54.05;94768.00;5034060;28;20662;-36
2023/06/08 16:23:05;;;;;;;0.40;0.40;;;22.60;70.60;;;22.94;54.06;94756.78;5033574;28;20275;-38
2023/06/08 16:25:32;;;;;;;0.40;0.40;;;22.60;70.60;;;22.93;54.13;94752.50;5033981;28;20513;-37
2023/06/08 16:28:00;;;;;;;0.40;0.40;;;22.60;70.60;;;22.94;53.82;94747.97;5033477;28;20609;-37
2023/06/08 16:30:27;;;;;;;0.30;0.30;;;22.60;70.60;;;22.92;53.89;94748.22;5029113;28;20294;-38
2023/06/08 16:32:55;;;;;;;0.40;0.40;;;22.60;70.60;;;22.93;53.87;94749.03;5028081;28;20212;-37
2023/06/08 16:35:22;;;;;;;0.40;0.40;;;22.60;70.60;;;22.90;54.01;94745.03;5014424;28;20208;-37
2023/06/08 16:37:49;;;;;;;0.40;0.40;;;22.50;70.60;;;22.89;53.88;94743.44;5013932;28;20656;-36
2023/06/08 16:40:16;;;;;;;0.50;0.50;;;22.50;70.60;;;22.89;53.89;94745.28;5012536;28;20633;-37
2023/06/08 16:42:46;;;;;;;0.40;0.40;;;22.50;70.60;;;22.88;53.94;94749.84;5012511;28;20206;-38
2023/06/08 16:45:13;;;;;;;0.45;0.45;;;22.50;70.70;;;22.88;54.00;94751.75;5012820;28;20293;-38
2023/06/08 16:47:41;;;;;;;0.45;0.45;;;22.50;70.70;;;22.88;53.96;94744.50;5013632;28;20229;-38
2023/06/08 16:50:12;;;;;;;0.40;0.40;;;22.50;70.70;;;22.86;54.34;94742.09;5013839;28;20217;-37
2023/06/08 16:52:40;;;;;;;0.32;0.32;;;22.50;70.70;;;22.85;54.18;94751.19;5029210;28;20576;-37
2023/06/08 16:55:08;;;;;;;0.40;0.40;;;22.50;70.70;;;22.85;54.07;94750.38;5013521;28;20193;-38
2023/06/08 16:57:36;;;;;;;0.35;0.35;;;22.50;70.70;;;22.86;54.07;94750.13;5013472;28;20220;-37
2023/06/08 17:00:07;;;;;;;0.35;0.35;;;22.50;70.70;;;22.85;54.08;94753.88;5013962;28;20196;-38
2023/06/08 17:02:35;;;;;;;0.30;0.30;;;22.50;70.70;;;22.84;54.08;94749.59;5013955;28;20181;-37
2023/06/08 17:05:03;;;;;;;0.40;0.40;;;22.50;70.70;;;22.84;53.72;94746.91;5028971;28;20226;-38
2023/06/08 17:07:30;;;;;;;0.30;0.30;;;22.50;70.70;;;22.84;54.02;94746.91;5013271;28;20204;-38
2023/06/08 17:09:59;;;;;;;0.40;0.40;;;22.50;70.70;;;22.83;54.19;94744.53;5028519;28;20280;-37
2023/06/08 17:12:26;;;;;;;0.40;0.40;;;22.50;70.70;;;22.81;54.10;94744.81;5013367;28;20189;-41
2023/06/08 17:14:53;;;;;;;0.40;0.40;;;22.50;70.60;;;22.81;53.88;94735.97;5013117;28;20208;-36
2023/06/08 17:17:21;;;;;;;0.30;0.30;;;22.50;70.50;;;22.79;53.86;94736.25;5013694;28;20190;-37
2023/06/08 17:19:49;;;;;;;0.30;0.30;;;22.50;70.50;;;22.78;53.76;94733.84;5013129;28;20204;-36
2023/06/08 17:22:16;;;;;;;0.35;0.35;;;22.50;71.40;;;22.77;54.12;94724.22;5012019;28;20232;-36
2023/06/08 17:24:43;;;;;;;0.40;0.40;;;22.40;70.40;;;22.78;54.18;94728.50;5028534;28;20206;-36
2023/06/08 17:27:11;;;;;;;0.40;0.40;;;22.50;70.60;;;22.77;54.00;94732.25;5011543;28;20207;-37
2023/06/08 17:29:38;;;;;;;0.40;0.40;;;22.40;71.50;;;22.76;53.88;94736.00;5013219;28;20586;-36
2023/06/08 17:32:06;;;;;;;0.40;0.40;;;22.40;70.60;;;22.76;54.15;94727.97;5012962;28;20223;-36
2023/06/08 17:34:33;;;;;;;0.40;0.40;;;22.40;70.70;;;22.75;53.89;94729.84;5013399;28;20189;-37
2023/06/08 17:37:00;;;;;;;0.40;0.40;;;22.40;70.60;;;22.76;53.95;94727.97;5013266;28;20288;-36
2023/06/08 17:39:27;;;;;;;0.30;0.30;;;22.40;70.60;;;22.76;53.77;94728.75;5011998;28;20229;-36
2023/06/08 17:41:54;;;;;;;0.30;0.30;;;22.40;70.60;;;22.76;53.80;94722.63;5012256;28;20279;-36
2023/06/08 17:44:21;;;;;;;0.40;0.40;;;22.40;70.60;;;22.74;54.13;94722.91;5012221;28;20506;-36
2023/06/08 17:46:48;;;;;;;0.40;0.40;;;22.40;70.50;;;22.73;53.96;94715.13;5012740;28;20208;-36
2023/06/08 17:49:17;;;;;;;0.40;0.40;;;22.40;70.50;;;22.73;53.90;94718.63;5013182;28;20219;-36
2023/06/08 17:51:44;;;;;;;0.45;0.45;;;22.40;70.50;;;22.73;54.01;94717.81;5011739;28;20201;-36
2023/06/08 17:54:11;;;;;;;0.40;0.40;;;22.40;70.50;;;22.73;53.99;94723.16;5012524;28;20266;-36
2023/06/08 17:56:41;;;;;;;0.35;0.35;;;22.40;70.50;;;22.69;53.81;94714.88;5012715;28;20196;-36
2023/06/08 17:59:12;;;;;;;0.38;0.38;;;22.30;70.40;;;22.70;53.94;94713.81;5012543;28;20287;-36
2023/06/08 18:01:39;;;;;;;0.50;0.50;;;22.30;70.30;;;22.69;53.90;94713.03;5012814;28;20193;-37
2023/06/08 18:04:07;;;;;;;0.40;0.40;;;22.30;70.40;;;22.69;54.10;94720.22;5011674;28;20254;-36
2023/06/08 18:06:35;;;;;;;0.30;0.30;;;22.40;70.50;;;22.68;53.95;94724.78;5012763;28;20581;-36
2023/06/08 18:09:02;;;;;;;0.40;0.40;;;22.30;70.50;;;22.68;54.10;94718.66;5011402;28;20622;-36
2023/06/08 18:11:30;;;;;;;0.40;0.40;;;22.40;70.60;;;22.67;54.07;94709.81;5028469;28;20260;-36
2023/06/08 18:13:57;;;;;;;0.30;0.30;;;22.30;70.60;;;22.67;54.04;94712.50;5012372;28;20257;-36
2023/06/08 18:16:25;;;;;;;0.40;0.40;;;22.30;70.60;;;22.68;54.01;94708.75;5012341;28;20273;-36
2023/06/08 18:18:52;;;;;;;0.30;0.30;;;22.30;70.50;;;22.67;54.04;94709.81;5012206;28;20200;-36
2023/06/08 18:21:20;;;;;;;0.40;0.40;;;22.30;70.60;;;22.66;53.93;94704.75;5012254;28;20295;-36
2023/06/08 18:23:53;;;;;;;0.40;0.40;;;22.30;70.50;;;22.66;53.79;94705.53;5011331;28;20207;-37
2023/06/08 18:26:21;;;;;;;0.40;0.40;;;22.30;70.50;;;22.66;54.07;94710.88;5012255;28;20185;-36
2023/06/08 18:28:50;;;;;;;0.40;0.40;;;22.30;70.50;;;22.65;54.07;94703.16;5027283;28;20231;-37
2023/06/08 18:31:17;;;;;;;0.32;0.32;;;22.30;70.60;;;22.65;54.35;94708.50;5012705;28;20189;-37
2023/06/08 18:33:46;;;;;;;0.40;0.40;;;22.40;70.70;;;22.65;54.05;94708.50;5012133;28;20703;-36
2023/06/08 18:36:13;;;;;;;0.40;0.40;;;22.30;70.60;;;22.65;54.02;94708.50;5012107;28;20210;-37
2023/06/08 18:38:40;;;;;;;0.40;0.40;;;22.40;70.60;;;22.65;54.39;94708.50;5012376;28;20536;-36
2023/06/08 18:41:08;;;;;;;0.43;0.43;;;22.30;70.50;;;22.65;54.09;94703.16;5015572;28;20277;-38
2023/06/08 18:43:35;;;;;;;0.40;0.40;;;22.30;70.50;;;22.64;54.31;94704.22;5015021;28;20300;-37
2023/06/08 18:46:05;;;;;;;0.40;0.40;;;22.30;70.50;;;22.64;54.30;94706.88;5015539;28;20250;-40
2023/06/08 18:48:33;;;;;;;0.40;0.40;;;22.30;70.50;;;22.63;54.23;94711.44;5015684;28;20211;-38
2023/06/08 18:51:01;;;;;;;0.32;0.32;;;22.30;70.50;;;22.63;53.93;94707.97;5015942;28;20228;-45
2023/06/08 18:53:28;;;;;;;0.30;0.30;;;22.40;70.50;;;22.64;54.00;94717.59;5014600;28;20193;-38
2023/06/08 18:55:55;;;;;;;0.40;0.40;;;22.30;70.40;;;22.63;54.12;94711.44;5015708;28;20254;-44
2023/06/08 18:58:23;;;;;;;0.40;0.40;;;22.30;70.50;;;22.63;53.86;94718.66;5015881;28;20235;-37
2023/06/08 19:00:50;;;;;;;0.40;0.40;;;22.30;70.40;;;22.62;53.98;94722.41;5015970;28;20214;-37
2023/06/08 19:03:17;;;;;;;0.32;0.32;;;22.40;70.50;;;22.61;54.09;94712.78;5014489;28;20200;-37
2023/06/08 19:05:45;;;;;;;0.30;0.30;;;22.30;70.50;;;22.61;54.14;94715.47;5031613;28;20197;-36
2023/06/08 19:08:12;;;;;;;0.40;0.40;;;22.30;70.40;;;22.60;54.10;94717.31;5015179;28;20196;-36
2023/06/08 19:10:40;;;;;;;0.40;0.40;;;22.30;70.30;;;22.59;54.19;94721.06;5015128;28;20758;-36
2023/06/08 19:13:07;;;;;;;0.40;0.40;;;22.40;70.40;;;22.59;53.97;94715.72;5014850;28;20200;-36
2023/06/08 19:15:34;;;;;;;0.40;0.40;;;22.30;70.30;;;22.58;54.06;94721.34;5015068;28;20266;-36
2023/06/08 19:18:02;;;;;;;0.40;0.40;;;22.30;70.30;;;22.57;53.92;94727.75;5015535;28;20206;-36
2023/06/08 19:20:29;;;;;;;0.40;0.40;;;22.30;70.30;;;22.56;53.90;94721.63;5014821;28;20341;-36
2023/06/08 19:22:57;;;;;;;0.50;0.50;;;22.30;70.40;;;22.55;54.18;94730.72;5014977;28;20212;-36
2023/06/08 19:25:25;;;;;;;0.30;0.30;;;22.30;70.40;;;22.55;54.04;94733.38;5015071;28;20692;-36
2023/06/08 19:27:53;;;;;;;0.40;0.40;;;22.20;70.30;;;22.53;54.06;94731.00;5014177;28;20236;-36
2023/06/08 19:30:20;;;;;;;0.30;0.30;;;22.30;70.40;;;22.54;54.01;94739.81;5014895;28;20220;-36
2023/06/08 19:32:47;;;;;;;0.30;0.30;;;22.30;70.50;;;22.54;53.88;94745.16;5014822;28;20246;-37
2023/06/08 19:35:14;;;;;;;0.30;0.30;;;22.20;70.30;;;22.53;54.14;94744.34;5013905;28;20708;-38
2023/06/08 19:37:43;;;;;;;0.40;0.40;;;22.20;70.40;;;22.53;53.96;94738.19;5015040;28;20200;-37
2023/06/08 19:40:11;;;;;;;0.30;0.30;;;22.30;70.50;;;22.53;53.97;94743.53;5014833;28;20592;-37
2023/06/08 19:42:39;;;;;;;0.40;0.40;;;22.20;70.40;;;22.52;54.37;94737.41;5014849;28;20253;-36
2023/06/08 19:49:27;;;;;;;0.50;0.50;;;22.20;70.30;;;22.45;54.43;94722.72;5027701;22;20263;-36
2023/06/08 19:51:55;;;;;;;0.40;0.40;;;22.30;70.30;;;22.46;54.15;94724.31;5015233;28;20613;-37
2023/06/08 19:54:22;;;;;;;0.50;0.50;;;22.20;70.30;;;22.46;54.34;94727.81;4997324;28;20310;-36
2023/06/08 19:56:50;;;;;;;0.38;0.38;;;22.20;70.30;;;22.46;54.09;94727.81;4997435;28;20338;-36
2023/06/08 19:59:19;;;;;;;0.40;0.40;;;22.20;70.40;;;22.46;53.94;94722.47;5014530;28;20201;-36
2023/06/08 20:01:48;;;;;;;0.40;0.40;;;22.20;70.30;;;22.46;54.20;94725.13;5014406;28;20222;-36
2023/06/08 20:04:15;;;;;;;0.43;0.43;;;22.20;70.30;;;22.45;54.15;94728.88;4997438;28;20196;-37
2023/06/08 20:06:52;;;;;;;0.40;0.40;;;22.20;70.40;;;22.45;54.10;94725.38;5014341;28;20630;-37
2023/06/08 20:09:23;;;;;;;0.40;0.40;;;22.20;70.30;;;22.42;54.35;94732.06;5014555;28;20220;-36
2023/06/08 20:11:51;;;;;;;0.40;0.40;;;22.20;70.40;;;22.42;54.37;94726.72;4997854;28;20521;-36
2023/06/08 20:14:19;;;;;;;0.40;0.40;;;22.20;70.30;;;22.43;54.41;94731.00;4997440;28;20203;-36
2023/06/08 20:16:48;;;;;;;0.50;0.50;;;22.20;70.30;;;22.43;53.92;94730.22;4997252;28;20196;-36
2023/06/08 20:19:19;;;;;;;0.40;0.40;;;22.20;70.30;;;22.42;54.10;94731.28;5013951;28;20576;-36
2023/06/08 20:21:47;;;;;;;0.40;0.40;;;22.20;70.30;;;22.42;54.29;94731.28;5014146;28;20203;-37
2023/06/08 20:24:15;;;;;;;0.40;0.40;;;22.20;70.30;;;22.41;53.95;94730.50;5014006;28;20200;-37
2023/06/08 20:26:44;;;;;;;0.30;0.30;;;22.20;70.30;;;22.39;54.33;94730.75;5013610;28;20258;-36
2023/06/08 20:29:11;;;;;;;0.40;0.40;;;22.20;70.30;;;22.41;53.92;94732.34;5013909;28;20204;-36
2023/06/08 20:31:39;;;;;;;0.50;0.50;;;22.20;70.30;;;22.39;54.04;94729.97;5013711;28;20269;-36
2023/06/08 20:34:10;;;;;;;0.40;0.40;;;22.20;70.30;;;22.38;53.99;94731.81;5013901;28;20551;-36
2023/06/08 20:36:37;;;;;;;0.40;0.40;;;22.20;70.30;;;22.38;54.41;94729.13;5014559;28;20279;-36
2023/06/08 20:39:06;;;;;;;0.30;0.30;;;22.20;70.30;;;22.38;54.16;94726.47;5013791;28;20193;-36
2023/06/08 20:41:33;;;;;;;0.45;0.45;;;22.20;70.30;;;22.36;53.99;94735.78;5013957;28;20226;-36
2023/06/08 20:44:00;;;;;;;0.40;0.40;;;22.20;70.30;;;22.35;54.10;94737.69;5013557;28;20208;-36
2023/06/08 20:46:32;;;;;;;0.40;0.40;;;22.20;70.20;;;22.34;54.21;94728.06;5014015;28;20197;-36
2023/06/08 20:49:02;;;;;;;0.40;0.40;;;22.20;70.30;;;22.33;54.16;94736.34;5013546;28;20319;-36
2023/06/08 20:51:30;;;;;;;0.40;0.40;;;22.20;70.20;;;22.32;54.15;94729.41;5013680;28;20224;-36
2023/06/08 20:53:58;;;;;;;0.45;0.45;;;22.20;70.30;;;22.32;53.98;94729.41;5013611;28;20282;-36
2023/06/08 20:56:26;;;;;;;0.50;0.50;;;22.10;70.20;;;22.32;53.97;94729.41;5013493;28;20278;-36
2023/06/08 20:58:53;;;;;;;0.40;0.40;;;22.10;70.20;;;22.31;54.31;94736.59;5013768;28;20283;-38